createdAt,value
2018-04-01T00:00:56.488Z,8.5
2018-04-01T00:01:57.773Z,8.2
2018-04-01T00:02:59.810Z,8.2
2018-04-01T00:04:01.437Z,8.3
2018-04-01T00:05:02.693Z,8.3
2018-04-01T00:06:03.953Z,8.2
2018-04-01T00:07:05.262Z,8.2
2018-04-01T00:08:06.532Z,8.2
2018-04-01T00:09:07.839Z,8.1
2018-04-01T00:10:09.150Z,8
2018-04-01T00:11:10.389Z,8
2018-04-01T00:12:11.686Z,7.9
2018-04-01T00:13:12.952Z,7.9
2018-04-01T00:14:14.193Z,7.9
2018-04-01T00:15:15.463Z,8
2018-04-01T00:16:16.670Z,8
2018-04-01T00:17:17.952Z,7.9
2018-04-01T00:18:19.212Z,8
2018-04-01T00:19:20.446Z,8.2
2018-04-01T00:20:21.725Z,8
2018-04-01T00:21:22.939Z,7.7
2018-04-01T00:22:24.241Z,8
2018-04-01T00:23:25.540Z,8.1
2018-04-01T00:24:26.829Z,8.1
2018-04-01T00:25:28.083Z,8.1
2018-04-01T00:26:29.324Z,7.9
2018-04-01T00:27:30.612Z,7.7
2018-04-01T00:28:31.865Z,7.6
2018-04-01T00:29:33.104Z,7.6
2018-04-01T00:30:34.367Z,7.6
2018-04-01T00:31:35.628Z,7.7
2018-04-01T00:32:36.967Z,7.7
2018-04-01T00:33:38.224Z,7.9
2018-04-01T00:34:39.512Z,7.7
2018-04-01T00:35:40.751Z,7.6
2018-04-01T00:36:41.955Z,7.6
2018-04-01T00:37:43.234Z,7.6
2018-04-01T00:38:44.452Z,7.6
2018-04-01T00:39:45.692Z,7.6
2018-04-01T00:40:46.904Z,7.6
2018-04-01T00:41:48.191Z,7.7
2018-04-01T00:42:49.481Z,7.5
2018-04-01T00:43:50.769Z,7.4
2018-04-01T00:44:52.016Z,7.4
2018-04-01T00:45:53.262Z,7.4
2018-04-01T00:46:54.604Z,7.3
2018-04-01T00:47:55.889Z,7.5
2018-04-01T00:48:57.120Z,7.3
2018-04-01T00:49:58.354Z,7.4
2018-04-01T00:50:59.642Z,7.5
2018-04-01T00:52:00.897Z,7.3
2018-04-01T00:53:02.254Z,7.7
2018-04-01T00:54:03.509Z,7.5
2018-04-01T00:55:04.761Z,7.5
2018-04-01T00:56:05.991Z,7.6
2018-04-01T00:57:08.468Z,7.7
2018-04-01T00:58:09.769Z,7.8
2018-04-01T00:59:10.982Z,7.6
2018-04-01T01:00:12.221Z,7.3
2018-04-01T01:01:13.514Z,7.5
2018-04-01T01:02:14.788Z,7.3
2018-04-01T01:03:16.109Z,7.3
2018-04-01T01:04:17.323Z,7.4
2018-04-01T01:05:18.964Z,7.5
2018-04-01T01:06:20.829Z,7.3
2018-04-01T01:07:22.580Z,7.3
2018-04-01T01:08:23.859Z,7.6
2018-04-01T01:09:25.468Z,7.3
2018-04-01T01:10:26.730Z,7.2
2018-04-01T01:11:27.991Z,7.2
2018-04-01T01:12:29.193Z,7.3
2018-04-01T01:13:30.505Z,7.2
2018-04-01T01:14:31.727Z,7.1
2018-04-01T01:15:33.002Z,7.1
2018-04-01T01:16:34.296Z,7.1
2018-04-01T01:17:35.537Z,7.2
2018-04-01T01:18:36.830Z,7.3
2018-04-01T01:19:38.048Z,7.2
2018-04-01T01:20:39.275Z,7.5
2018-04-01T01:21:40.514Z,7.2
2018-04-01T01:22:41.741Z,7.4
2018-04-01T01:23:43.071Z,7.4
2018-04-01T01:24:44.330Z,7.3
2018-04-01T01:25:45.567Z,7.2
2018-04-01T01:26:46.844Z,7.2
2018-04-01T01:27:48.084Z,7.2
2018-04-01T01:28:49.345Z,7.2
2018-04-01T01:29:50.581Z,7.1
2018-04-01T01:30:51.821Z,7.4
2018-04-01T01:31:53.050Z,7.4
2018-04-01T01:32:54.277Z,7.6
2018-04-01T01:33:55.565Z,7.5
2018-04-01T01:34:56.789Z,7.6
2018-04-01T01:35:58.098Z,7.3
2018-04-01T01:36:59.357Z,7.5
2018-04-01T01:38:00.586Z,7.2
2018-04-01T01:39:02.255Z,7.8
2018-04-01T01:40:03.452Z,7.9
2018-04-01T01:41:04.704Z,8.1
2018-04-01T01:42:05.948Z,8.3
2018-04-01T01:43:07.194Z,8.4
2018-04-01T01:44:08.431Z,8.8
2018-04-01T01:45:09.701Z,8.7
2018-04-01T01:46:10.930Z,8.6
2018-04-01T01:47:12.173Z,8.9
2018-04-01T01:48:13.407Z,8.9
2018-04-01T01:49:14.682Z,8.8
2018-04-01T01:50:15.934Z,8.9
2018-04-01T01:51:17.190Z,9.1
2018-04-01T01:52:18.414Z,9.2
2018-04-01T01:53:19.792Z,9.4
2018-04-01T01:54:21.133Z,9.4
2018-04-01T01:55:22.392Z,9.5
2018-04-01T01:56:23.709Z,9.2
2018-04-01T01:57:25.058Z,9.5
2018-04-01T01:58:26.335Z,9.3
2018-04-01T01:59:27.753Z,8.9
2018-04-01T02:00:29.016Z,9
2018-04-01T02:01:30.275Z,9
2018-04-01T02:02:31.524Z,8.8
2018-04-01T02:03:32.812Z,8.8
2018-04-01T02:04:34.069Z,8.8
2018-04-01T02:05:35.337Z,8.6
2018-04-01T02:06:36.610Z,8.6
2018-04-01T02:07:37.907Z,8.6
2018-04-01T02:08:39.200Z,8.7
2018-04-01T02:09:40.521Z,9
2018-04-01T02:10:41.814Z,8.9
2018-04-01T02:11:43.033Z,8.9
2018-04-01T02:12:44.267Z,8.6
2018-04-01T02:13:45.476Z,8.7
2018-04-01T02:14:46.760Z,8.4
2018-04-01T02:15:47.954Z,8.5
2018-04-01T02:16:49.225Z,8.3
2018-04-01T02:17:50.532Z,8
2018-04-01T02:18:51.796Z,8.1
2018-04-01T02:19:53.052Z,8
2018-04-01T02:20:54.269Z,7.9
2018-04-01T02:21:55.487Z,8
2018-04-01T02:22:56.697Z,7.9
2018-04-01T02:23:57.920Z,7.7
2018-04-01T02:24:59.230Z,7.6
2018-04-01T02:26:00.510Z,7.5
2018-04-01T02:27:01.850Z,7.3
2018-04-01T02:28:03.173Z,7.4
2018-04-01T02:29:04.444Z,7.4
2018-04-01T02:30:05.690Z,7.6
2018-04-01T02:31:06.958Z,7.4
2018-04-01T02:32:08.195Z,7.3
2018-04-01T02:33:09.471Z,7.2
2018-04-01T02:34:10.725Z,7.2
2018-04-01T02:35:11.991Z,7.1
2018-04-01T02:36:13.211Z,7.2
2018-04-01T02:37:15.639Z,7.2
2018-04-01T02:38:18.414Z,7.1
2018-04-01T02:39:19.652Z,7.2
2018-04-01T02:40:20.982Z,7.1
2018-04-01T02:41:22.206Z,7.1
2018-04-01T02:42:23.453Z,7
2018-04-01T02:43:24.732Z,7
2018-04-01T02:44:25.977Z,6.9
2018-04-01T02:45:27.290Z,6.9
2018-04-01T02:46:28.522Z,6.8
2018-04-01T02:47:29.758Z,6.8
2018-04-01T02:48:30.980Z,6.8
2018-04-01T02:49:32.250Z,6.8
2018-04-01T02:50:33.578Z,6.8
2018-04-01T02:51:34.814Z,6.9
2018-04-01T02:52:36.041Z,6.8
2018-04-01T02:53:37.294Z,6.8
2018-04-01T02:54:38.615Z,6.8
2018-04-01T02:55:39.928Z,6.7
2018-04-01T02:56:41.151Z,6.8
2018-04-01T02:57:42.391Z,6.8
2018-04-01T02:58:43.620Z,6.7
2018-04-01T02:59:44.891Z,6.7
2018-04-01T03:00:46.163Z,6.6
2018-04-01T03:01:47.387Z,6.8
2018-04-01T03:02:48.625Z,6.7
2018-04-01T03:03:49.937Z,6.5
2018-04-01T03:04:51.170Z,6.4
2018-04-01T03:05:52.433Z,6.5
2018-04-01T03:06:53.729Z,6.5
2018-04-01T03:07:54.975Z,6.5
2018-04-01T03:08:56.175Z,6.5
2018-04-01T03:09:57.393Z,6.7
2018-04-01T03:10:58.690Z,6.8
2018-04-01T03:11:59.913Z,6.8
2018-04-01T03:13:01.302Z,6.6
2018-04-01T03:14:02.566Z,6.5
2018-04-01T03:15:03.806Z,6.5
2018-04-01T03:16:05.083Z,6.5
2018-04-01T03:17:06.342Z,6.3
2018-04-01T03:18:07.568Z,6.5
2018-04-01T03:19:08.806Z,6.5
2018-04-01T03:20:10.045Z,6.5
2018-04-01T03:21:11.305Z,6.5
2018-04-01T03:22:12.590Z,6.5
2018-04-01T03:23:13.832Z,6.5
2018-04-01T03:24:15.088Z,6.6
2018-04-01T03:25:16.357Z,6.5
2018-04-01T03:26:17.656Z,6.4
2018-04-01T03:27:18.872Z,6.4
2018-04-01T03:28:20.111Z,6.4
2018-04-01T03:29:21.332Z,6.3
2018-04-01T03:30:22.590Z,6.4
2018-04-01T03:31:23.838Z,6.3
2018-04-01T03:32:25.067Z,6.3
2018-04-01T03:33:26.297Z,6.3
2018-04-01T03:34:27.525Z,6.2
2018-04-01T03:35:28.789Z,6.2
2018-04-01T03:36:30.317Z,6.1
2018-04-01T03:37:31.542Z,6.1
2018-04-01T03:38:32.786Z,5.9
2018-04-01T03:39:34.065Z,5.8
2018-04-01T03:40:35.400Z,5.9
2018-04-01T03:41:36.740Z,5.8
2018-04-01T03:42:37.986Z,5.9
2018-04-01T03:43:39.214Z,5.8
2018-04-01T03:44:40.484Z,5.8
2018-04-01T03:45:41.697Z,5.8
2018-04-01T03:46:42.960Z,5.7
2018-04-01T03:47:44.237Z,5.7
2018-04-01T03:48:45.474Z,5.8
2018-04-01T03:49:46.689Z,5.7
2018-04-01T03:50:47.919Z,5.7
2018-04-01T03:51:49.168Z,5.7
2018-04-01T03:52:50.438Z,5.6
2018-04-01T03:53:51.677Z,5.6
2018-04-01T03:54:52.905Z,5.6
2018-04-01T03:55:54.143Z,5.5
2018-04-01T03:56:55.429Z,5.5
2018-04-01T03:57:56.654Z,5.6
2018-04-01T03:58:57.895Z,5.5
2018-04-01T03:59:59.137Z,5.4
2018-04-01T04:01:00.493Z,5.6
2018-04-01T04:02:01.772Z,5.6
2018-04-01T04:03:03.041Z,5.6
2018-04-01T04:04:04.288Z,5.5
2018-04-01T04:05:05.521Z,5.5
2018-04-01T04:06:06.742Z,5.5
2018-04-01T04:07:08.091Z,5.4
2018-04-01T04:08:09.772Z,5.5
2018-04-01T04:09:11.069Z,5.5
2018-04-01T04:10:12.298Z,5.5
2018-04-01T04:11:13.515Z,5.5
2018-04-01T04:12:14.795Z,5.5
2018-04-01T04:13:16.013Z,5.5
2018-04-01T04:14:17.254Z,5.5
2018-04-01T04:15:18.480Z,5.5
2018-04-01T04:16:19.692Z,5.6
2018-04-01T04:17:20.999Z,5.5
2018-04-01T04:18:22.226Z,5.5
2018-04-01T04:19:23.476Z,5.5
2018-04-01T04:20:24.706Z,5.5
2018-04-01T04:21:25.930Z,5.4
2018-04-01T04:22:27.285Z,5.5
2018-04-01T04:23:28.569Z,5.6
2018-04-01T04:24:29.800Z,5.5
2018-04-01T04:25:31.021Z,5.6
2018-04-01T04:26:32.229Z,5.5
2018-04-01T04:27:33.512Z,5.6
2018-04-01T04:28:34.752Z,5.6
2018-04-01T04:29:35.992Z,5.6
2018-04-01T04:30:37.225Z,5.6
2018-04-01T04:31:38.467Z,5.5
2018-04-01T04:32:39.751Z,5.6
2018-04-01T04:33:40.983Z,5.7
2018-04-01T04:34:42.217Z,5.7
2018-04-01T04:35:43.450Z,5.6
2018-04-01T04:36:44.706Z,5.6
2018-04-01T04:37:45.961Z,5.6
2018-04-01T04:38:47.223Z,5.6
2018-04-01T04:39:48.448Z,5.7
2018-04-01T04:40:49.684Z,5.7
2018-04-01T04:41:50.961Z,5.7
2018-04-01T04:42:52.301Z,5.7
2018-04-01T04:43:53.640Z,5.6
2018-04-01T04:44:56.260Z,5.6
2018-04-01T04:45:57.496Z,5.6
2018-04-01T04:46:58.749Z,5.7
2018-04-01T04:48:00.021Z,5.6
2018-04-01T04:49:01.384Z,5.4
2018-04-01T04:50:02.639Z,5.6
2018-04-01T04:51:03.867Z,5.7
2018-04-01T04:52:05.107Z,5.4
2018-04-01T04:53:06.424Z,5.6
2018-04-01T04:54:07.732Z,5.6
2018-04-01T04:55:08.991Z,5.6
2018-04-01T04:56:10.221Z,5.7
2018-04-01T04:57:11.468Z,5.7
2018-04-01T04:58:12.856Z,5.7
2018-04-01T04:59:14.073Z,5.7
2018-04-01T05:00:15.325Z,5.7
2018-04-01T05:01:26.849Z,5.8
2018-04-01T05:02:28.108Z,5.8
2018-04-01T05:03:29.399Z,5.7
2018-04-01T05:04:30.716Z,5.5
2018-04-01T05:05:31.950Z,5.8
2018-04-01T05:06:33.178Z,5.7
2018-04-01T05:07:34.400Z,5.7
2018-04-01T05:08:35.712Z,5.7
2018-04-01T05:09:36.997Z,5.8
2018-04-01T05:10:38.233Z,5.7
2018-04-01T05:11:39.488Z,5.8
2018-04-01T05:12:40.746Z,5.7
2018-04-01T05:13:42.046Z,5.7
2018-04-01T05:14:43.252Z,5.7
2018-04-01T05:15:44.519Z,5.8
2018-04-01T05:16:45.816Z,5.8
2018-04-01T05:17:47.069Z,5.7
2018-04-01T05:18:48.321Z,5.7
2018-04-01T05:19:49.868Z,5.7
2018-04-01T05:20:51.132Z,5.7
2018-04-01T05:21:52.376Z,5.7
2018-04-01T05:22:53.602Z,5.7
2018-04-01T05:23:54.885Z,5.7
2018-04-01T05:24:56.116Z,5.7
2018-04-01T05:25:57.358Z,5.8
2018-04-01T05:26:58.565Z,5.8
2018-04-01T05:27:59.831Z,5.9
2018-04-01T05:29:01.424Z,5.8
2018-04-01T05:30:02.846Z,5.9
2018-04-01T05:31:04.148Z,5.8
2018-04-01T05:32:05.381Z,5.7
2018-04-01T05:33:06.822Z,5.8
2018-04-01T05:34:08.102Z,5.8
2018-04-01T05:35:09.469Z,5.8
2018-04-01T05:36:10.750Z,5.8
2018-04-01T05:37:11.998Z,5.8
2018-04-01T05:38:13.273Z,5.8
2018-04-01T05:39:14.549Z,5.8
2018-04-01T05:40:15.780Z,5.8
2018-04-01T05:41:17.052Z,5.8
2018-04-01T05:42:18.297Z,5.8
2018-04-01T05:43:19.532Z,5.8
2018-04-01T05:44:21.081Z,5.8
2018-04-01T05:45:22.393Z,5.9
2018-04-01T05:46:23.628Z,5.8
2018-04-01T05:47:24.856Z,5.8
2018-04-01T05:48:26.088Z,5.8
2018-04-01T05:49:27.359Z,5.8
2018-04-01T05:50:28.619Z,5.9
2018-04-01T05:51:29.876Z,5.9
2018-04-01T05:52:31.127Z,5.9
2018-04-01T05:53:32.469Z,5.8
2018-04-01T05:54:33.753Z,5.8
2018-04-01T05:55:35.050Z,5.7
2018-04-01T05:56:36.333Z,5.7
2018-04-01T05:57:37.628Z,5.8
2018-04-01T05:58:38.845Z,6
2018-04-01T05:59:40.142Z,6.1
2018-04-01T06:00:41.402Z,6.1
2018-04-01T06:01:42.678Z,6
2018-04-01T06:02:43.925Z,6
2018-04-01T06:03:45.182Z,6
2018-04-01T06:04:46.476Z,6.3
2018-04-01T06:05:47.699Z,6.2
2018-04-01T06:06:48.966Z,6.2
2018-04-01T06:07:50.142Z,6.2
2018-04-01T06:08:51.421Z,6.2
2018-04-01T06:09:52.670Z,6.2
2018-04-01T06:10:53.891Z,6.2
2018-04-01T06:11:55.149Z,6.1
2018-04-01T06:12:56.390Z,6.3
2018-04-01T06:13:57.629Z,6.2
2018-04-01T06:14:58.997Z,6.3
2018-04-01T06:16:00.309Z,9
2018-04-01T06:17:01.644Z,10.7
2018-04-01T06:18:02.968Z,11.4
2018-04-01T06:19:04.236Z,11.9
2018-04-01T06:20:05.541Z,12
2018-04-01T06:21:06.782Z,12.2
2018-04-01T06:22:08.039Z,12.5
2018-04-01T06:23:09.306Z,12.9
2018-04-01T06:24:10.540Z,13.1
2018-04-01T06:25:11.875Z,13.3
2018-04-01T06:26:13.124Z,13.4
2018-04-01T06:27:14.368Z,13.6
2018-04-01T06:28:15.649Z,13.8
2018-04-01T06:29:16.920Z,13.9
2018-04-01T06:30:18.281Z,13.9
2018-04-01T06:31:19.533Z,13.9
2018-04-01T06:32:20.767Z,13.9
2018-04-01T06:33:22.025Z,14
2018-04-01T06:34:23.314Z,13.8
2018-04-01T06:35:24.616Z,14.2
2018-04-01T06:36:25.879Z,14.2
2018-04-01T06:37:27.175Z,14.1
2018-04-01T06:38:28.450Z,14.1
2018-04-01T06:39:29.724Z,14.1
2018-04-01T06:40:31.070Z,14.1
2018-04-01T06:41:32.323Z,14.1
2018-04-01T06:42:33.619Z,14
2018-04-01T06:43:34.960Z,14
2018-04-01T06:44:36.239Z,14.1
2018-04-01T06:45:37.548Z,14.1
2018-04-01T06:46:38.811Z,14
2018-04-01T06:47:40.028Z,14.1
2018-04-01T06:48:41.317Z,14.1
2018-04-01T06:49:43.039Z,14
2018-04-01T06:50:44.412Z,14
2018-04-01T06:51:45.594Z,14
2018-04-01T06:52:46.920Z,14
2018-04-01T06:53:48.185Z,14.1
2018-04-01T06:54:49.428Z,14
2018-04-01T06:55:50.736Z,14
2018-04-01T06:56:52.033Z,13.8
2018-04-01T06:57:53.264Z,13.8
2018-04-01T06:58:54.527Z,13.8
2018-04-01T06:59:55.798Z,14
2018-04-01T07:00:57.145Z,14
2018-04-01T07:01:58.406Z,14
2018-04-01T07:02:59.641Z,14
2018-04-01T07:04:01.076Z,14
2018-04-01T07:05:02.323Z,14.1
2018-04-01T07:06:03.606Z,14
2018-04-01T07:07:04.877Z,14.1
2018-04-01T07:08:06.136Z,14.1
2018-04-01T07:09:07.434Z,14.2
2018-04-01T07:10:08.703Z,14.2
2018-04-01T07:11:10.040Z,14.2
2018-04-01T07:12:11.412Z,14.1
2018-04-01T07:13:12.946Z,14.2
2018-04-01T07:14:14.612Z,14
2018-04-01T07:15:16.534Z,14.1
2018-04-01T07:16:17.906Z,14.1
2018-04-01T07:17:19.174Z,14.1
2018-04-01T07:18:20.497Z,14.2
2018-04-01T07:19:21.812Z,14.2
2018-04-01T07:20:23.108Z,14.1
2018-04-01T07:21:24.384Z,14.2
2018-04-01T07:22:25.663Z,14.3
2018-04-01T07:23:27.202Z,14.2
2018-04-01T07:24:28.549Z,14.1
2018-04-01T07:25:29.808Z,14.1
2018-04-01T07:26:31.172Z,14.1
2018-04-01T07:27:32.441Z,14.1
2018-04-01T07:28:36.908Z,14.1
2018-04-01T07:29:38.179Z,14.2
2018-04-01T07:30:39.447Z,14.3
2018-04-01T07:31:40.725Z,14.3
2018-04-01T07:32:41.969Z,14.2
2018-04-01T07:33:43.195Z,14.3
2018-04-01T07:34:44.530Z,14.3
2018-04-01T07:35:45.764Z,14.3
2018-04-01T07:36:48.971Z,14.2
2018-04-01T07:37:50.221Z,14.3
2018-04-01T07:38:51.506Z,14.3
2018-04-01T07:39:52.766Z,14.3
2018-04-01T07:40:54.005Z,14.3
2018-04-01T07:41:55.266Z,14.3
2018-04-01T07:42:56.496Z,14.3
2018-04-01T07:43:57.762Z,14.4
2018-04-01T07:44:59.011Z,14.4
2018-04-01T07:46:00.296Z,14.4
2018-04-01T07:47:01.786Z,14.4
2018-04-01T07:48:04.316Z,14.4
2018-04-01T07:49:05.724Z,14.3
2018-04-01T07:50:07.020Z,14.5
2018-04-01T07:51:08.321Z,14.4
2018-04-01T07:52:09.608Z,14.4
2018-04-01T07:53:10.899Z,14.4
2018-04-01T07:54:12.195Z,14.4
2018-04-01T07:55:13.467Z,14.4
2018-04-01T07:56:14.713Z,14.4
2018-04-01T07:57:15.995Z,14.4
2018-04-01T07:58:17.288Z,14.4
2018-04-01T07:59:18.594Z,14.4
2018-04-01T08:00:19.881Z,14.4
2018-04-01T08:01:24.192Z,14.4
2018-04-01T08:02:25.472Z,14.5
2018-04-01T08:03:26.709Z,14.5
2018-04-01T08:04:27.981Z,14.5
2018-04-01T08:05:29.234Z,14.5
2018-04-01T08:06:30.484Z,14.6
2018-04-01T08:07:31.917Z,14.6
2018-04-01T08:08:33.165Z,14.5
2018-04-01T08:09:34.436Z,14.5
2018-04-01T08:10:35.674Z,14.6
2018-04-01T08:11:36.950Z,14.6
2018-04-01T08:12:38.232Z,14.6
2018-04-01T08:13:39.505Z,14.5
2018-04-01T08:14:40.746Z,14.6
2018-04-01T08:15:42.113Z,14.6
2018-04-01T08:16:43.334Z,14.7
2018-04-01T08:17:44.628Z,14.7
2018-04-01T08:18:45.883Z,14.6
2018-04-01T08:19:47.158Z,14.6
2018-04-01T08:20:48.408Z,14.7
2018-04-01T08:21:49.665Z,14.8
2018-04-01T08:22:50.957Z,15
2018-04-01T08:23:52.232Z,15.2
2018-04-01T08:24:53.539Z,15.3
2018-04-01T08:25:54.792Z,15.4
2018-04-01T08:26:56.040Z,15.5
2018-04-01T08:27:57.306Z,15.7
2018-04-01T08:28:58.524Z,15.9
2018-04-01T08:29:59.775Z,15.9
2018-04-01T08:31:00.997Z,16
2018-04-01T08:32:02.378Z,16
2018-04-01T08:33:03.686Z,16.1
2018-04-01T08:34:04.919Z,16.3
2018-04-01T08:35:06.158Z,16.3
2018-04-01T08:36:07.424Z,16.4
2018-04-01T08:37:08.778Z,16.5
2018-04-01T08:38:10.444Z,16.6
2018-04-01T08:39:11.740Z,16.6
2018-04-01T08:40:12.982Z,16.7
2018-04-01T08:41:14.238Z,16.7
2018-04-01T08:42:15.489Z,16.7
2018-04-01T08:43:16.794Z,16.6
2018-04-01T08:44:18.027Z,16.6
2018-04-01T08:45:19.273Z,16.6
2018-04-01T08:46:26.358Z,16.6
2018-04-01T08:47:27.615Z,16.7
2018-04-01T08:48:28.900Z,16.7
2018-04-01T08:49:30.191Z,16.7
2018-04-01T08:50:31.497Z,16.7
2018-04-01T08:51:32.757Z,16.6
2018-04-01T08:52:34.028Z,16.6
2018-04-01T08:53:35.342Z,16.7
2018-04-01T08:54:36.654Z,16.7
2018-04-01T08:55:37.916Z,16.6
2018-04-01T08:56:39.204Z,16.6
2018-04-01T08:57:40.447Z,16.6
2018-04-01T08:58:41.917Z,16.5
2018-04-01T08:59:43.314Z,16.5
2018-04-01T09:00:44.581Z,16.5
2018-04-01T09:01:45.812Z,16.5
2018-04-01T09:02:47.079Z,16.4
2018-04-01T09:03:48.392Z,16.5
2018-04-01T09:04:49.635Z,16.5
2018-04-01T09:05:50.924Z,16.4
2018-04-01T09:06:52.361Z,16.4
2018-04-01T09:07:53.742Z,16.4
2018-04-01T09:08:55.191Z,16.3
2018-04-01T09:09:56.521Z,16.4
2018-04-01T09:10:57.783Z,16.3
2018-04-01T09:11:59.068Z,16.3
2018-04-01T09:13:00.333Z,16.2
2018-04-01T09:14:01.740Z,16.2
2018-04-01T09:15:03.151Z,16.1
2018-04-01T09:16:09.772Z,16.1
2018-04-01T09:17:11.043Z,16
2018-04-01T09:18:12.474Z,16
2018-04-01T09:19:16.181Z,15.9
2018-04-01T09:20:17.444Z,16
2018-04-01T09:21:18.695Z,15.9
2018-04-01T09:22:23.537Z,15.8
2018-04-01T09:23:24.833Z,15.9
2018-04-01T09:24:26.104Z,15.9
2018-04-01T09:25:27.377Z,15.9
2018-04-01T09:26:28.630Z,15.9
2018-04-01T09:27:31.036Z,15.8
2018-04-01T09:28:32.523Z,15.8
2018-04-01T09:29:33.842Z,15.7
2018-04-01T09:30:35.125Z,15.8
2018-04-01T09:31:36.394Z,15.9
2018-04-01T09:32:37.673Z,15.9
2018-04-01T09:33:38.946Z,16
2018-04-01T09:34:40.393Z,15.9
2018-04-01T09:35:41.752Z,16
2018-04-01T09:36:43.132Z,16
2018-04-01T09:37:44.397Z,16
2018-04-01T09:38:45.740Z,16
2018-04-01T09:39:47.040Z,16
2018-04-01T09:40:48.306Z,16.1
2018-04-01T09:41:49.574Z,16
2018-04-01T09:42:50.837Z,16
2018-04-01T09:43:52.126Z,16
2018-04-01T09:44:53.495Z,15.9
2018-04-01T09:45:54.906Z,15.9
2018-04-01T09:46:56.153Z,15.9
2018-04-01T09:47:57.397Z,15.9
2018-04-01T09:48:58.780Z,16
2018-04-01T09:50:00.644Z,16
2018-04-01T09:51:01.904Z,16
2018-04-01T09:52:03.144Z,16.1
2018-04-01T09:53:04.398Z,16.1
2018-04-01T09:54:05.685Z,16.2
2018-04-01T09:55:07.004Z,16.1
2018-04-01T09:56:08.268Z,16.2
2018-04-01T09:57:09.532Z,16.2
2018-04-01T09:58:10.818Z,16.2
2018-04-01T09:59:12.133Z,16.2
2018-04-01T10:00:13.413Z,16.3
2018-04-01T10:01:14.645Z,16.3
2018-04-01T10:02:15.939Z,16.2
2018-04-01T10:03:17.341Z,16.2
2018-04-01T10:04:18.590Z,16.3
2018-04-01T10:05:19.950Z,16.3
2018-04-01T10:06:21.270Z,16.2
2018-04-01T10:07:22.600Z,16.2
2018-04-01T10:08:23.884Z,16.3
2018-04-01T10:09:25.166Z,16.3
2018-04-01T10:10:26.513Z,16.3
2018-04-01T10:11:27.752Z,16.3
2018-04-01T10:12:28.989Z,16.3
2018-04-01T10:13:30.257Z,16.3
2018-04-01T10:14:31.523Z,16.3
2018-04-01T10:15:32.841Z,16.3
2018-04-01T10:16:34.096Z,16.3
2018-04-01T10:17:35.389Z,16.4
2018-04-01T10:18:36.694Z,16.4
2018-04-01T10:19:37.995Z,16.4
2018-04-01T10:20:39.369Z,16.4
2018-04-01T10:21:40.742Z,16.4
2018-04-01T10:22:42.056Z,16.4
2018-04-01T10:23:43.404Z,16.4
2018-04-01T10:24:44.728Z,16.4
2018-04-01T10:25:46.075Z,16.4
2018-04-01T10:26:47.299Z,16.5
2018-04-01T10:27:48.527Z,16.5
2018-04-01T10:28:49.823Z,16.5
2018-04-01T10:29:51.242Z,16.5
2018-04-01T10:30:52.772Z,16.6
2018-04-01T10:31:54.016Z,16.6
2018-04-01T10:32:55.267Z,16.7
2018-04-01T10:33:56.533Z,16.7
2018-04-01T10:34:57.777Z,16.7
2018-04-01T10:35:59.132Z,16.6
2018-04-01T10:37:00.481Z,16.6
2018-04-01T10:38:01.864Z,16.6
2018-04-01T10:39:03.159Z,16.6
2018-04-01T10:40:04.433Z,16.6
2018-04-01T10:41:05.716Z,16.6
2018-04-01T10:42:06.998Z,16.6
2018-04-01T10:43:08.353Z,16.7
2018-04-01T10:44:09.642Z,16.7
2018-04-01T10:45:10.896Z,16.7
2018-04-01T10:46:12.215Z,16.8
2018-04-01T10:47:22.370Z,16.7
2018-04-01T10:48:23.591Z,16.7
2018-04-01T10:49:24.856Z,16.7
2018-04-01T10:50:26.137Z,16.8
2018-04-01T10:51:27.446Z,16.8
2018-04-01T10:52:34.758Z,16.8
2018-04-01T10:53:36.068Z,16.8
2018-04-01T10:54:37.357Z,16.8
2018-04-01T10:55:38.670Z,16.8
2018-04-01T10:56:39.933Z,16.8
2018-04-01T10:57:41.257Z,16.8
2018-04-01T10:58:42.600Z,16.7
2018-04-01T10:59:44.185Z,16.8
2018-04-01T11:00:45.462Z,16.8
2018-04-01T11:01:46.800Z,16.8
2018-04-01T11:02:48.164Z,16.8
2018-04-01T11:03:49.431Z,16.8
2018-04-01T11:04:50.686Z,16.8
2018-04-01T11:05:51.943Z,16.8
2018-04-01T11:06:53.302Z,16.9
2018-04-01T11:07:54.556Z,16.9
2018-04-01T11:08:55.859Z,16.9
2018-04-01T11:09:57.146Z,16.9
2018-04-01T11:10:58.393Z,16.9
2018-04-01T11:11:59.704Z,16.9
2018-04-01T11:13:00.974Z,16.9
2018-04-01T11:14:02.320Z,16.9
2018-04-01T11:15:03.669Z,16.8
2018-04-01T11:16:05.099Z,16.9
2018-04-01T11:17:06.673Z,17
2018-04-01T11:18:08.114Z,17.1
2018-04-01T11:19:09.430Z,17.1
2018-04-01T11:20:10.725Z,17.1
2018-04-01T11:21:12.050Z,17.2
2018-04-01T11:22:13.411Z,17.3
2018-04-01T11:23:14.667Z,17.4
2018-04-01T11:24:15.912Z,17.6
2018-04-01T11:25:17.179Z,17.6
2018-04-01T11:26:18.458Z,17.6
2018-04-01T11:27:19.782Z,17.7
2018-04-01T11:28:21.026Z,17.8
2018-04-01T11:29:22.324Z,17.9
2018-04-01T11:30:23.637Z,17.9
2018-04-01T11:31:26.135Z,17.9
2018-04-01T11:32:27.477Z,18
2018-04-01T11:33:28.773Z,18.1
2018-04-01T11:34:30.085Z,18.1
2018-04-01T11:35:31.390Z,18
2018-04-01T11:36:32.724Z,18.2
2018-04-01T11:37:34.075Z,18.1
2018-04-01T11:38:35.301Z,18.2
2018-04-01T11:39:36.587Z,18.2
2018-04-01T11:40:37.884Z,18.2
2018-04-01T11:41:39.201Z,18.2
2018-04-01T11:42:40.657Z,18.3
2018-04-01T11:43:41.986Z,18.3
2018-04-01T11:44:43.483Z,18.3
2018-04-01T11:45:44.725Z,18.3
2018-04-01T11:46:45.988Z,18.1
2018-04-01T11:47:47.268Z,18.2
2018-04-01T11:48:48.799Z,18.2
2018-04-01T11:49:50.053Z,18.3
2018-04-01T11:50:51.299Z,18.2
2018-04-01T11:51:52.685Z,18.2
2018-04-01T11:52:54.156Z,18.2
2018-04-01T11:53:55.425Z,18.2
2018-04-01T11:54:56.762Z,18.2
2018-04-01T11:55:58.074Z,18.2
2018-04-01T11:56:59.337Z,18.2
2018-04-01T11:58:00.644Z,18.2
2018-04-01T11:59:02.105Z,18.2
2018-04-01T12:00:03.490Z,18.2
2018-04-01T12:01:04.800Z,18.1
2018-04-01T12:02:06.078Z,18.2
2018-04-01T12:03:08.595Z,18.2
2018-04-01T12:04:12.954Z,18.2
2018-04-01T12:05:14.234Z,18.3
2018-04-01T12:06:15.618Z,18.3
2018-04-01T12:07:16.893Z,18.3
2018-04-01T12:08:18.218Z,18.2
2018-04-01T12:09:19.472Z,18.2
2018-04-01T12:10:20.728Z,18.2
2018-04-01T12:11:21.979Z,18.2
2018-04-01T12:12:23.370Z,18.2
2018-04-01T12:13:24.700Z,18.1
2018-04-01T12:14:25.949Z,18.1
2018-04-01T12:15:27.190Z,18.1
2018-04-01T12:16:28.457Z,18.1
2018-04-01T12:17:29.700Z,18.1
2018-04-01T12:18:30.993Z,18.1
2018-04-01T12:19:33.306Z,18.1
2018-04-01T12:20:34.569Z,18.1
2018-04-01T12:21:35.862Z,18.1
2018-04-01T12:22:37.117Z,18.1
2018-04-01T12:23:38.542Z,18.1
2018-04-01T12:24:39.898Z,18.2
2018-04-01T12:25:41.176Z,18.2
2018-04-01T12:26:42.513Z,18.1
2018-04-01T12:27:43.823Z,18.1
2018-04-01T12:28:45.113Z,18.1
2018-04-01T12:29:46.600Z,18.1
2018-04-01T12:30:47.866Z,18.1
2018-04-01T12:31:49.149Z,18.1
2018-04-01T12:32:50.464Z,18.1
2018-04-01T12:33:51.826Z,18.1
2018-04-01T12:34:53.164Z,18.1
2018-04-01T12:35:54.475Z,18.1
2018-04-01T12:36:55.750Z,18.2
2018-04-01T12:37:57.289Z,18.1
2018-04-01T12:38:58.721Z,18.1
2018-04-01T12:39:59.970Z,18.2
2018-04-01T12:41:01.232Z,18.1
2018-04-01T12:42:02.470Z,18.2
2018-04-01T12:43:03.794Z,18.2
2018-04-01T12:44:05.095Z,18.3
2018-04-01T12:45:06.424Z,18.3
2018-04-01T12:46:07.711Z,18.4
2018-04-01T12:47:09.107Z,18.5
2018-04-01T12:48:11.162Z,18.5
2018-04-01T12:49:12.608Z,18.5
2018-04-01T12:50:13.860Z,18.6
2018-04-01T12:51:15.159Z,18.5
2018-04-01T12:52:16.444Z,18.6
2018-04-01T12:53:17.694Z,18.5
2018-04-01T12:54:19.186Z,18.5
2018-04-01T12:55:20.427Z,18.5
2018-04-01T12:56:21.744Z,18.5
2018-04-01T12:57:23.050Z,18.4
2018-04-01T12:58:24.323Z,18.4
2018-04-01T12:59:25.715Z,18.4
2018-04-01T13:00:27.005Z,18.3
2018-04-01T13:01:28.270Z,18.4
2018-04-01T13:02:29.518Z,18.4
2018-04-01T13:03:30.769Z,18.4
2018-04-01T13:04:32.045Z,18.4
2018-04-01T13:05:33.342Z,18.4
2018-04-01T13:06:34.672Z,18.4
2018-04-01T13:07:35.966Z,18.4
2018-04-01T13:08:37.238Z,18.4
2018-04-01T13:09:38.562Z,18.4
2018-04-01T13:10:39.833Z,18.4
2018-04-01T13:11:41.222Z,18.4
2018-04-01T13:12:42.859Z,18.5
2018-04-01T13:13:44.270Z,18.4
2018-04-01T13:14:45.632Z,18.4
2018-04-01T13:15:46.888Z,18.4
2018-04-01T13:16:48.219Z,18.4
2018-04-01T13:17:49.819Z,18.3
2018-04-01T13:18:51.139Z,18.4
2018-04-01T13:19:52.492Z,18.4
2018-04-01T13:20:53.772Z,18.4
2018-04-01T13:21:55.146Z,18.4
2018-04-01T13:22:56.422Z,18.4
2018-04-01T13:23:57.718Z,18.4
2018-04-01T13:24:59.018Z,18.3
2018-04-01T13:26:00.312Z,18.3
2018-04-01T13:27:01.649Z,18.4
2018-04-01T13:28:03.037Z,18.5
2018-04-01T13:29:04.575Z,18.5
2018-04-01T13:30:05.898Z,18.5
2018-04-01T13:31:07.180Z,18.4
2018-04-01T13:32:08.444Z,18.5
2018-04-01T13:33:09.864Z,18.5
2018-04-01T13:34:11.230Z,18.5
2018-04-01T13:35:12.545Z,18.6
2018-04-01T13:36:13.808Z,18.6
2018-04-01T13:37:15.140Z,18.6
2018-04-01T13:38:16.470Z,18.6
2018-04-01T13:39:17.706Z,18.5
2018-04-01T13:40:19.016Z,18.5
2018-04-01T13:41:21.525Z,18.5
2018-04-01T13:42:23.042Z,18.5
2018-04-01T13:43:24.405Z,18.5
2018-04-01T13:44:25.697Z,18.6
2018-04-01T13:45:26.968Z,18.6
2018-04-01T13:46:28.274Z,18.6
2018-04-01T13:47:34.405Z,18.6
2018-04-01T13:48:35.704Z,18.5
2018-04-01T13:49:37.143Z,18.5
2018-04-01T13:50:38.466Z,18.5
2018-04-01T13:51:39.788Z,18.5
2018-04-01T13:52:41.095Z,18.5
2018-04-01T13:53:42.361Z,18.5